sensor_id;sensor_type;location;lat;lon;timestamp;temperature;humidity
9847;DHT22;4962;50.084;8.794;2022-11-11T00:00:32;13.10;99.90
9847;DHT22;4962;50.084;8.794;2022-11-11T00:02:59;13.10;99.90
9847;DHT22;4962;50.084;8.794;2022-11-11T00:05:26;13.10;99.90
9847;DHT22;4962;50.084;8.794;2022-11-11T00:07:53;13.20;99.90
9847;DHT22;4962;50.084;8.794;2022-11-11T00:10:25;13.20;99.90
9847;DHT22;4962;50.084;8.794;2022-11-11T00:12:52;13.20;99.90
9847;DHT22;4962;50.084;8.794;2022-11-11T00:15:19;13.20;99.90
9847;DHT22;4962;50.084;8.794;2022-11-11T00:17:46;13.20;99.90
9847;DHT22;4962;50.084;8.794;2022-11-11T00:20:30;13.20;99.90
9847;DHT22;4962;50.084;8.794;2022-11-11T00:23:19;13.20;99.90
9847;DHT22;4962;50.084;8.794;2022-11-11T00:26:06;13.20;99.90
9847;DHT22;4962;50.084;8.794;2022-11-11T00:28:33;13.10;99.90
9847;DHT22;4962;50.084;8.794;2022-11-11T00:31:01;13.10;99.90
9847;DHT22;4962;50.084;8.794;2022-11-11T00:33:28;13.10;99.90
9847;DHT22;4962;50.084;8.794;2022-11-11T00:35:55;13.00;99.90
9847;DHT22;4962;50.084;8.794;2022-11-11T00:38:21;13.00;99.90
9847;DHT22;4962;50.084;8.794;2022-11-11T00:41:07;13.00;99.90
9847;DHT22;4962;50.084;8.794;2022-11-11T00:43:34;12.90;99.90
9847;DHT22;4962;50.084;8.794;2022-11-11T00:46:01;12.90;99.90
9847;DHT22;4962;50.084;8.794;2022-11-11T00:48:46;12.90;99.90
9847;DHT22;4962;50.084;8.794;2022-11-11T00:51:30;12.90;99.90
9847;DHT22;4962;50.084;8.794;2022-11-11T00:53:57;12.90;99.90
9847;DHT22;4962;50.084;8.794;2022-11-11T00:56:25;12.80;99.90
9847;DHT22;4962;50.084;8.794;2022-11-11T00:58:52;12.80;99.90
9847;DHT22;4962;50.084;8.794;2022-11-11T01:01:19;12.90;99.90
9847;DHT22;4962;50.084;8.794;2022-11-11T01:03:46;12.90;99.90
9847;DHT22;4962;50.084;8.794;2022-11-11T01:06:13;12.90;99.90
9847;DHT22;4962;50.084;8.794;2022-11-11T01:08:40;13.00;99.90
9847;DHT22;4962;50.084;8.794;2022-11-11T01:11:19;13.00;99.90
9847;DHT22;4962;50.084;8.794;2022-11-11T01:13:47;12.90;99.90
9847;DHT22;4962;50.084;8.794;2022-11-11T01:16:17;12.90;99.90
9847;DHT22;4962;50.084;8.794;2022-11-11T01:18:44;12.80;99.90
9847;DHT22;4962;50.084;8.794;2022-11-11T01:21:13;12.90;99.90
9847;DHT22;4962;50.084;8.794;2022-11-11T01:23:41;12.90;99.90
9847;DHT22;4962;50.084;8.794;2022-11-11T01:26:12;12.90;99.90
9847;DHT22;4962;50.084;8.794;2022-11-11T01:28:39;12.90;99.90
9847;DHT22;4962;50.084;8.794;2022-11-11T01:31:10;13.00;99.90
9847;DHT22;4962;50.084;8.794;2022-11-11T01:33:37;13.00;99.90
9847;DHT22;4962;50.084;8.794;2022-11-11T01:36:06;13.00;99.90
9847;DHT22;4962;50.084;8.794;2022-11-11T01:38:33;13.00;99.90
9847;DHT22;4962;50.084;8.794;2022-11-11T01:41:01;13.00;99.90
9847;DHT22;4962;50.084;8.794;2022-11-11T01:43:48;13.00;99.90
9847;DHT22;4962;50.084;8.794;2022-11-11T01:46:35;13.00;99.90
9847;DHT22;4962;50.084;8.794;2022-11-11T01:49:15;13.00;99.90
9847;DHT22;4962;50.084;8.794;2022-11-11T01:51:48;13.00;99.90
9847;DHT22;4962;50.084;8.794;2022-11-11T01:54:19;13.00;99.90
9847;DHT22;4962;50.084;8.794;2022-11-11T01:56:49;13.00;99.90
9847;DHT22;4962;50.084;8.794;2022-11-11T01:59:17;13.10;99.90
9847;DHT22;4962;50.084;8.794;2022-11-11T02:01:47;13.10;99.90
9847;DHT22;4962;50.084;8.794;2022-11-11T02:04:15;13.10;99.90
9847;DHT22;4962;50.084;8.794;2022-11-11T02:07:04;13.10;99.90
9847;DHT22;4962;50.084;8.794;2022-11-11T02:09:33;13.10;99.90
9847;DHT22;4962;50.084;8.794;2022-11-11T02:12:07;13.10;99.90
9847;DHT22;4962;50.084;8.794;2022-11-11T02:14:53;13.10;99.90
9847;DHT22;4962;50.084;8.794;2022-11-11T02:17:23;13.10;99.90
9847;DHT22;4962;50.084;8.794;2022-11-11T02:19:53;13.10;99.90
9847;DHT22;4962;50.084;8.794;2022-11-11T02:22:26;13.10;99.90
9847;DHT22;4962;50.084;8.794;2022-11-11T02:25:17;13.10;99.90
9847;DHT22;4962;50.084;8.794;2022-11-11T02:27:47;13.10;99.90
9847;DHT22;4962;50.084;8.794;2022-11-11T02:30:16;13.10;99.90
9847;DHT22;4962;50.084;8.794;2022-11-11T02:32:44;13.10;99.90
9847;DHT22;4962;50.084;8.794;2022-11-11T02:35:13;13.10;99.90
9847;DHT22;4962;50.084;8.794;2022-11-11T02:37:42;13.10;99.90
9847;DHT22;4962;50.084;8.794;2022-11-11T02:40:12;13.10;99.90
9847;DHT22;4962;50.084;8.794;2022-11-11T02:42:41;13.10;99.90
9847;DHT22;4962;50.084;8.794;2022-11-11T02:45:08;13.10;99.90
9847;DHT22;4962;50.084;8.794;2022-11-11T02:47:35;13.10;99.90
9847;DHT22;4962;50.084;8.794;2022-11-11T02:50:06;13.10;99.90
9847;DHT22;4962;50.084;8.794;2022-11-11T02:52:33;13.10;99.90
9847;DHT22;4962;50.084;8.794;2022-11-11T02:55:00;13.10;99.90
9847;DHT22;4962;50.084;8.794;2022-11-11T02:57:27;13.10;99.90
9847;DHT22;4962;50.084;8.794;2022-11-11T02:59:57;13.10;99.90
9847;DHT22;4962;50.084;8.794;2022-11-11T03:02:24;13.10;99.90
9847;DHT22;4962;50.084;8.794;2022-11-11T03:04:52;13.00;99.90
9847;DHT22;4962;50.084;8.794;2022-11-11T03:07:19;13.00;99.90
9847;DHT22;4962;50.084;8.794;2022-11-11T03:09:46;12.90;99.90
9847;DHT22;4962;50.084;8.794;2022-11-11T03:12:13;12.80;99.90
9847;DHT22;4962;50.084;8.794;2022-11-11T03:14:40;12.70;99.90
9847;DHT22;4962;50.084;8.794;2022-11-11T03:17:08;12.70;99.90
9847;DHT22;4962;50.084;8.794;2022-11-11T03:19:53;12.70;99.90
9847;DHT22;4962;50.084;8.794;2022-11-11T03:22:40;12.70;99.90
9847;DHT22;4962;50.084;8.794;2022-11-11T03:25:06;12.70;99.90
9847;DHT22;4962;50.084;8.794;2022-11-11T03:27:53;12.70;99.90
9847;DHT22;4962;50.084;8.794;2022-11-11T03:30:20;12.80;99.90
9847;DHT22;4962;50.084;8.794;2022-11-11T03:32:49;12.80;99.90
9847;DHT22;4962;50.084;8.794;2022-11-11T03:35:15;12.70;99.90
9847;DHT22;4962;50.084;8.794;2022-11-11T03:37:42;12.60;99.90
9847;DHT22;4962;50.084;8.794;2022-11-11T03:40:25;12.60;99.90
9847;DHT22;4962;50.084;8.794;2022-11-11T03:42:52;12.50;99.90
9847;DHT22;4962;50.084;8.794;2022-11-11T03:45:19;12.50;99.90
9847;DHT22;4962;50.084;8.794;2022-11-11T03:47:46;12.50;99.90
9847;DHT22;4962;50.084;8.794;2022-11-11T03:50:14;12.50;99.90
9847;DHT22;4962;50.084;8.794;2022-11-11T03:52:42;12.50;99.90
9847;DHT22;4962;50.084;8.794;2022-11-11T03:55:08;12.60;99.90
9847;DHT22;4962;50.084;8.794;2022-11-11T03:57:39;12.60;99.90
9847;DHT22;4962;50.084;8.794;2022-11-11T04:00:07;12.60;99.90
9847;DHT22;4962;50.084;8.794;2022-11-11T04:02:35;12.60;99.90
9847;DHT22;4962;50.084;8.794;2022-11-11T04:05:20;12.60;99.90
9847;DHT22;4962;50.084;8.794;2022-11-11T04:08:07;12.60;99.90
9847;DHT22;4962;50.084;8.794;2022-11-11T04:10:52;12.60;99.90
9847;DHT22;4962;50.084;8.794;2022-11-11T04:13:19;12.60;99.90
9847;DHT22;4962;50.084;8.794;2022-11-11T04:16:04;12.60;99.90
9847;DHT22;4962;50.084;8.794;2022-11-11T04:18:34;12.60;99.90
9847;DHT22;4962;50.084;8.794;2022-11-11T04:21:21;12.70;99.90
9847;DHT22;4962;50.084;8.794;2022-11-11T04:24:05;12.60;99.90
9847;DHT22;4962;50.084;8.794;2022-11-11T04:26:46;12.70;99.90
9847;DHT22;4962;50.084;8.794;2022-11-11T04:29:13;12.60;99.90
9847;DHT22;4962;50.084;8.794;2022-11-11T04:31:57;12.70;99.90
9847;DHT22;4962;50.084;8.794;2022-11-11T04:34:43;12.70;99.90
9847;DHT22;4962;50.084;8.794;2022-11-11T04:37:12;12.70;99.90
9847;DHT22;4962;50.084;8.794;2022-11-11T04:39:39;12.70;99.90
9847;DHT22;4962;50.084;8.794;2022-11-11T04:42:23;12.70;99.90
9847;DHT22;4962;50.084;8.794;2022-11-11T04:44:50;12.70;99.90
9847;DHT22;4962;50.084;8.794;2022-11-11T04:47:35;12.70;99.90
9847;DHT22;4962;50.084;8.794;2022-11-11T04:50:04;12.70;99.90
9847;DHT22;4962;50.084;8.794;2022-11-11T04:52:32;12.70;99.90
9847;DHT22;4962;50.084;8.794;2022-11-11T04:54:59;12.70;99.90
9847;DHT22;4962;50.084;8.794;2022-11-11T04:57:45;12.70;99.90
9847;DHT22;4962;50.084;8.794;2022-11-11T05:00:14;12.70;99.90
9847;DHT22;4962;50.084;8.794;2022-11-11T05:02:41;12.70;99.90
9847;DHT22;4962;50.084;8.794;2022-11-11T05:05:26;12.70;99.90
9847;DHT22;4962;50.084;8.794;2022-11-11T05:07:55;12.70;99.90
9847;DHT22;4962;50.084;8.794;2022-11-11T05:10:39;12.70;99.90
9847;DHT22;4962;50.084;8.794;2022-11-11T05:13:06;12.70;99.90
9847;DHT22;4962;50.084;8.794;2022-11-11T05:15:50;12.70;99.90
9847;DHT22;4962;50.084;8.794;2022-11-11T05:18:34;12.60;99.90
9847;DHT22;4962;50.084;8.794;2022-11-11T05:21:29;12.70;99.90
9847;DHT22;4962;50.084;8.794;2022-11-11T05:23:58;12.70;99.90
9847;DHT22;4962;50.084;8.794;2022-11-11T05:26:42;12.70;99.90
9847;DHT22;4962;50.084;8.794;2022-11-11T05:29:09;12.60;99.90
9847;DHT22;4962;50.084;8.794;2022-11-11T05:31:36;12.60;99.90
9847;DHT22;4962;50.084;8.794;2022-11-11T05:34:03;12.60;99.90
9847;DHT22;4962;50.084;8.794;2022-11-11T05:36:30;12.50;99.90
9847;DHT22;4962;50.084;8.794;2022-11-11T05:38:58;12.50;99.90
9847;DHT22;4962;50.084;8.794;2022-11-11T05:41:25;12.60;99.90
9847;DHT22;4962;50.084;8.794;2022-11-11T05:43:52;12.60;99.90
9847;DHT22;4962;50.084;8.794;2022-11-11T05:46:19;12.60;99.90
9847;DHT22;4962;50.084;8.794;2022-11-11T05:48:46;12.60;99.90
9847;DHT22;4962;50.084;8.794;2022-11-11T05:51:27;12.60;99.90
9847;DHT22;4962;50.084;8.794;2022-11-11T05:53:55;12.60;99.90
9847;DHT22;4962;50.084;8.794;2022-11-11T05:56:24;12.60;99.90
9847;DHT22;4962;50.084;8.794;2022-11-11T05:58:51;12.60;99.90
9847;DHT22;4962;50.084;8.794;2022-11-11T06:01:18;12.60;99.90
9847;DHT22;4962;50.084;8.794;2022-11-11T06:03:45;12.60;99.90
9847;DHT22;4962;50.084;8.794;2022-11-11T06:06:12;12.60;99.90
9847;DHT22;4962;50.084;8.794;2022-11-11T06:08:39;12.60;99.90
9847;DHT22;4962;50.084;8.794;2022-11-11T06:11:08;12.60;99.90
9847;DHT22;4962;50.084;8.794;2022-11-11T06:13:39;12.60;99.90
9847;DHT22;4962;50.084;8.794;2022-11-11T06:16:14;12.60;99.90
9847;DHT22;4962;50.084;8.794;2022-11-11T06:18:42;12.60;99.90
9847;DHT22;4962;50.084;8.794;2022-11-11T06:21:09;12.60;99.90
9847;DHT22;4962;50.084;8.794;2022-11-11T06:23:37;12.60;99.90
9847;DHT22;4962;50.084;8.794;2022-11-11T06:26:22;12.60;99.90
9847;DHT22;4962;50.084;8.794;2022-11-11T06:28:53;12.60;99.90
9847;DHT22;4962;50.084;8.794;2022-11-11T06:31:22;12.60;99.90
9847;DHT22;4962;50.084;8.794;2022-11-11T06:33:50;12.60;99.90
9847;DHT22;4962;50.084;8.794;2022-11-11T06:36:18;12.60;99.90
9847;DHT22;4962;50.084;8.794;2022-11-11T06:38:46;12.60;99.90
9847;DHT22;4962;50.084;8.794;2022-11-11T06:41:13;12.60;99.90
9847;DHT22;4962;50.084;8.794;2022-11-11T06:43:41;12.60;99.90
9847;DHT22;4962;50.084;8.794;2022-11-11T06:46:22;12.60;99.90
9847;DHT22;4962;50.084;8.794;2022-11-11T06:48:49;12.60;99.90
9847;DHT22;4962;50.084;8.794;2022-11-11T06:51:16;12.60;99.90
9847;DHT22;4962;50.084;8.794;2022-11-11T06:53:43;12.60;99.90
9847;DHT22;4962;50.084;8.794;2022-11-11T06:56:12;12.60;99.90
9847;DHT22;4962;50.084;8.794;2022-11-11T06:58:39;12.60;99.90
9847;DHT22;4962;50.084;8.794;2022-11-11T07:01:07;12.50;99.90
9847;DHT22;4962;50.084;8.794;2022-11-11T07:03:36;12.60;99.90
9847;DHT22;4962;50.084;8.794;2022-11-11T07:06:04;12.60;99.90
9847;DHT22;4962;50.084;8.794;2022-11-11T07:08:31;12.60;99.90
9847;DHT22;4962;50.084;8.794;2022-11-11T07:10:58;12.60;99.90
9847;DHT22;4962;50.084;8.794;2022-11-11T07:13:26;12.70;99.90
9847;DHT22;4962;50.084;8.794;2022-11-11T07:16:09;12.70;99.90
9847;DHT22;4962;50.084;8.794;2022-11-11T07:18:36;12.70;99.90
9847;DHT22;4962;50.084;8.794;2022-11-11T07:21:04;12.70;99.90
9847;DHT22;4962;50.084;8.794;2022-11-11T07:23:30;12.70;99.90
9847;DHT22;4962;50.084;8.794;2022-11-11T07:25:57;12.70;99.90
9847;DHT22;4962;50.084;8.794;2022-11-11T07:28:24;12.80;99.90
9847;DHT22;4962;50.084;8.794;2022-11-11T07:30:57;12.80;99.90
9847;DHT22;4962;50.084;8.794;2022-11-11T07:33:26;12.80;99.90
9847;DHT22;4962;50.084;8.794;2022-11-11T07:35:53;12.70;99.90
9847;DHT22;4962;50.084;8.794;2022-11-11T07:38:19;12.70;99.90
9847;DHT22;4962;50.084;8.794;2022-11-11T07:40:46;12.60;99.90
9847;DHT22;4962;50.084;8.794;2022-11-11T07:43:13;12.60;99.90
9847;DHT22;4962;50.084;8.794;2022-11-11T07:45:41;12.70;99.90
9847;DHT22;4962;50.084;8.794;2022-11-11T07:48:08;12.80;99.90
9847;DHT22;4962;50.084;8.794;2022-11-11T07:50:40;12.80;99.90
9847;DHT22;4962;50.084;8.794;2022-11-11T07:53:07;12.90;99.90
9847;DHT22;4962;50.084;8.794;2022-11-11T07:55:34;12.90;99.90
9847;DHT22;4962;50.084;8.794;2022-11-11T07:58:01;12.90;99.90
9847;DHT22;4962;50.084;8.794;2022-11-11T08:00:28;12.90;99.90
9847;DHT22;4962;50.084;8.794;2022-11-11T08:02:55;13.00;99.90
9847;DHT22;4962;50.084;8.794;2022-11-11T08:05:22;13.00;99.90
9847;DHT22;4962;50.084;8.794;2022-11-11T08:07:50;13.10;99.90
9847;DHT22;4962;50.084;8.794;2022-11-11T08:10:17;13.10;99.90
9847;DHT22;4962;50.084;8.794;2022-11-11T08:12:44;13.20;99.90
9847;DHT22;4962;50.084;8.794;2022-11-11T08:15:30;13.20;99.90
9847;DHT22;4962;50.084;8.794;2022-11-11T08:17:57;13.30;99.90
9847;DHT22;4962;50.084;8.794;2022-11-11T08:20:23;13.30;99.90
9847;DHT22;4962;50.084;8.794;2022-11-11T08:22:52;13.40;99.90
9847;DHT22;4962;50.084;8.794;2022-11-11T08:25:21;13.40;99.90
9847;DHT22;4962;50.084;8.794;2022-11-11T08:27:48;13.50;99.90
9847;DHT22;4962;50.084;8.794;2022-11-11T08:30:15;13.60;99.90
9847;DHT22;4962;50.084;8.794;2022-11-11T08:32:42;13.60;99.90
9847;DHT22;4962;50.084;8.794;2022-11-11T08:35:09;13.70;99.90
9847;DHT22;4962;50.084;8.794;2022-11-11T08:37:36;13.70;99.90
9847;DHT22;4962;50.084;8.794;2022-11-11T08:40:05;13.80;99.90
9847;DHT22;4962;50.084;8.794;2022-11-11T08:42:32;13.90;99.90
9847;DHT22;4962;50.084;8.794;2022-11-11T08:44:59;13.90;99.90
9847;DHT22;4962;50.084;8.794;2022-11-11T08:47:26;14.00;99.90
9847;DHT22;4962;50.084;8.794;2022-11-11T08:49:53;14.10;99.90
9847;DHT22;4962;50.084;8.794;2022-11-11T08:52:28;14.10;99.90
9847;DHT22;4962;50.084;8.794;2022-11-11T08:54:56;14.30;99.90
9847;DHT22;4962;50.084;8.794;2022-11-11T08:57:25;14.30;99.90
9847;DHT22;4962;50.084;8.794;2022-11-11T08:59:52;14.40;99.90
9847;DHT22;4962;50.084;8.794;2022-11-11T09:02:19;14.40;99.90
9847;DHT22;4962;50.084;8.794;2022-11-11T09:04:47;14.50;99.90
9847;DHT22;4962;50.084;8.794;2022-11-11T09:07:17;14.60;99.90
9847;DHT22;4962;50.084;8.794;2022-11-11T09:09:52;14.70;99.90
9847;DHT22;4962;50.084;8.794;2022-11-11T09:12:21;14.70;99.90
9847;DHT22;4962;50.084;8.794;2022-11-11T09:14:56;14.70;99.90
9847;DHT22;4962;50.084;8.794;2022-11-11T09:17:28;14.80;99.90
9847;DHT22;4962;50.084;8.794;2022-11-11T09:19:59;14.90;99.90
9847;DHT22;4962;50.084;8.794;2022-11-11T09:22:31;14.90;99.90
9847;DHT22;4962;50.084;8.794;2022-11-11T09:25:01;15.00;99.90
9847;DHT22;4962;50.084;8.794;2022-11-11T09:27:34;15.00;99.90
9847;DHT22;4962;50.084;8.794;2022-11-11T09:30:05;15.10;99.90
9847;DHT22;4962;50.084;8.794;2022-11-11T09:32:36;15.10;99.90
9847;DHT22;4962;50.084;8.794;2022-11-11T09:35:06;15.20;99.90
9847;DHT22;4962;50.084;8.794;2022-11-11T09:40:43;15.20;99.90
9847;DHT22;4962;50.084;8.794;2022-11-11T09:43:27;15.30;99.90
9847;DHT22;4962;50.084;8.794;2022-11-11T09:46:13;15.30;99.90
9847;DHT22;4962;50.084;8.794;2022-11-11T09:51:45;15.40;99.90
9847;DHT22;4962;50.084;8.794;2022-11-11T09:54:29;15.40;99.90
9847;DHT22;4962;50.084;8.794;2022-11-11T09:57:04;15.40;99.90
9847;DHT22;4962;50.084;8.794;2022-11-11T09:59:45;15.40;99.90
9847;DHT22;4962;50.084;8.794;2022-11-11T10:02:56;15.50;99.90
9847;DHT22;4962;50.084;8.794;2022-11-11T10:05:36;15.50;99.90
9847;DHT22;4962;50.084;8.794;2022-11-11T10:08:17;15.50;99.90
9847;DHT22;4962;50.084;8.794;2022-11-11T10:13:58;15.50;99.90
9847;DHT22;4962;50.084;8.794;2022-11-11T10:16:42;15.50;99.90
9847;DHT22;4962;50.084;8.794;2022-11-11T10:19:28;15.50;99.90
9847;DHT22;4962;50.084;8.794;2022-11-11T10:22:21;15.60;99.90
9847;DHT22;4962;50.084;8.794;2022-11-11T10:25:15;15.60;99.90
9847;DHT22;4962;50.084;8.794;2022-11-11T10:28:00;15.60;99.90
9847;DHT22;4962;50.084;8.794;2022-11-11T10:30:35;15.60;99.90
9847;DHT22;4962;50.084;8.794;2022-11-11T10:33:13;15.60;99.90
9847;DHT22;4962;50.084;8.794;2022-11-11T10:35:49;15.70;99.90
9847;DHT22;4962;50.084;8.794;2022-11-11T10:38:40;15.70;99.90
9847;DHT22;4962;50.084;8.794;2022-11-11T10:41:20;15.70;99.90
9847;DHT22;4962;50.084;8.794;2022-11-11T10:44:24;15.80;99.90
9847;DHT22;4962;50.084;8.794;2022-11-11T10:47:04;15.80;99.90
9847;DHT22;4962;50.084;8.794;2022-11-11T10:49:50;15.80;99.90
9847;DHT22;4962;50.084;8.794;2022-11-11T10:52:23;15.80;99.90
9847;DHT22;4962;50.084;8.794;2022-11-11T10:54:56;15.90;99.90
9847;DHT22;4962;50.084;8.794;2022-11-11T10:57:30;15.90;99.90
9847;DHT22;4962;50.084;8.794;2022-11-11T11:00:10;15.90;99.90
9847;DHT22;4962;50.084;8.794;2022-11-11T11:02:44;15.90;99.90
9847;DHT22;4962;50.084;8.794;2022-11-11T11:05:20;15.90;99.90
9847;DHT22;4962;50.084;8.794;2022-11-11T11:08:01;15.90;99.90
9847;DHT22;4962;50.084;8.794;2022-11-11T11:10:38;15.90;99.90
9847;DHT22;4962;50.084;8.794;2022-11-11T11:13:15;16.00;99.90
9847;DHT22;4962;50.084;8.794;2022-11-11T11:15:52;16.00;99.90
9847;DHT22;4962;50.084;8.794;2022-11-11T11:18:21;16.00;99.90
9847;DHT22;4962;50.084;8.794;2022-11-11T11:20:55;16.00;99.90
9847;DHT22;4962;50.084;8.794;2022-11-11T11:23:39;16.10;99.90
9847;DHT22;4962;50.084;8.794;2022-11-11T11:26:07;16.10;99.90
9847;DHT22;4962;50.084;8.794;2022-11-11T11:28:52;16.20;99.90
9847;DHT22;4962;50.084;8.794;2022-11-11T11:31:34;16.20;99.90
9847;DHT22;4962;50.084;8.794;2022-11-11T11:34:02;16.20;99.90
9847;DHT22;4962;50.084;8.794;2022-11-11T11:36:29;16.20;99.90
9847;DHT22;4962;50.084;8.794;2022-11-11T11:38:58;16.30;99.90
9847;DHT22;4962;50.084;8.794;2022-11-11T11:41:36;16.30;99.90
9847;DHT22;4962;50.084;8.794;2022-11-11T11:44:04;16.30;99.90
9847;DHT22;4962;50.084;8.794;2022-11-11T11:46:51;16.40;99.90
9847;DHT22;4962;50.084;8.794;2022-11-11T11:49:29;16.40;99.90
9847;DHT22;4962;50.084;8.794;2022-11-11T11:52:08;16.40;99.90
9847;DHT22;4962;50.084;8.794;2022-11-11T11:54:48;16.50;99.90
9847;DHT22;4962;50.084;8.794;2022-11-11T11:57:25;16.50;99.90
9847;DHT22;4962;50.084;8.794;2022-11-11T12:00:02;16.50;99.90
9847;DHT22;4962;50.084;8.794;2022-11-11T12:02:59;16.50;99.90
9847;DHT22;4962;50.084;8.794;2022-11-11T12:05:33;16.60;99.90
9847;DHT22;4962;50.084;8.794;2022-11-11T12:08:16;16.50;99.90
9847;DHT22;4962;50.084;8.794;2022-11-11T12:10:53;16.60;99.90
9847;DHT22;4962;50.084;8.794;2022-11-11T12:13:33;16.60;99.90
9847;DHT22;4962;50.084;8.794;2022-11-11T12:16:15;16.60;99.90
9847;DHT22;4962;50.084;8.794;2022-11-11T12:18:52;16.60;99.90
9847;DHT22;4962;50.084;8.794;2022-11-11T12:21:32;16.60;99.90
9847;DHT22;4962;50.084;8.794;2022-11-11T12:24:08;16.50;99.90
9847;DHT22;4962;50.084;8.794;2022-11-11T12:26:47;16.50;99.90
9847;DHT22;4962;50.084;8.794;2022-11-11T12:29:30;16.50;99.90
9847;DHT22;4962;50.084;8.794;2022-11-11T12:32:13;16.50;99.90
9847;DHT22;4962;50.084;8.794;2022-11-11T12:35:03;16.50;99.90
9847;DHT22;4962;50.084;8.794;2022-11-11T12:37:37;16.50;99.90
9847;DHT22;4962;50.084;8.794;2022-11-11T12:40:20;16.50;99.90
9847;DHT22;4962;50.084;8.794;2022-11-11T12:43:09;16.50;99.90
9847;DHT22;4962;50.084;8.794;2022-11-11T12:45:45;16.50;99.90
9847;DHT22;4962;50.084;8.794;2022-11-11T12:48:27;16.50;99.90
9847;DHT22;4962;50.084;8.794;2022-11-11T12:51:01;16.50;99.90
9847;DHT22;4962;50.084;8.794;2022-11-11T12:53:34;16.50;99.90
9847;DHT22;4962;50.084;8.794;2022-11-11T12:56:08;16.50;99.90
9847;DHT22;4962;50.084;8.794;2022-11-11T12:58:45;16.50;99.90
9847;DHT22;4962;50.084;8.794;2022-11-11T13:01:21;16.50;99.90
9847;DHT22;4962;50.084;8.794;2022-11-11T13:04:08;16.50;99.90
9847;DHT22;4962;50.084;8.794;2022-11-11T13:06:55;16.50;99.90
9847;DHT22;4962;50.084;8.794;2022-11-11T13:09:32;16.50;99.90
9847;DHT22;4962;50.084;8.794;2022-11-11T13:12:05;16.50;99.90
9847;DHT22;4962;50.084;8.794;2022-11-11T13:14:56;16.50;99.90
9847;DHT22;4962;50.084;8.794;2022-11-11T13:17:30;16.50;99.90
9847;DHT22;4962;50.084;8.794;2022-11-11T13:20:53;16.50;99.90
9847;DHT22;4962;50.084;8.794;2022-11-11T13:23:49;16.50;99.90
9847;DHT22;4962;50.084;8.794;2022-11-11T13:33:44;16.50;99.90
9847;DHT22;4962;50.084;8.794;2022-11-11T13:36:17;16.60;99.90
9847;DHT22;4962;50.084;8.794;2022-11-11T13:38:58;16.60;99.90
9847;DHT22;4962;50.084;8.794;2022-11-11T13:41:41;16.50;99.90
9847;DHT22;4962;50.084;8.794;2022-11-11T13:44:15;16.50;99.90
9847;DHT22;4962;50.084;8.794;2022-11-11T13:46:45;16.50;99.90
9847;DHT22;4962;50.084;8.794;2022-11-11T13:49:23;16.50;99.90
9847;DHT22;4962;50.084;8.794;2022-11-11T13:51:57;16.50;99.90
9847;DHT22;4962;50.084;8.794;2022-11-11T13:54:27;16.50;99.90
9847;DHT22;4962;50.084;8.794;2022-11-11T13:57:02;16.50;99.90
9847;DHT22;4962;50.084;8.794;2022-11-11T13:59:34;16.50;99.90
9847;DHT22;4962;50.084;8.794;2022-11-11T14:02:24;16.50;99.90
9847;DHT22;4962;50.084;8.794;2022-11-11T14:05:16;16.50;99.90
9847;DHT22;4962;50.084;8.794;2022-11-11T14:07:50;16.50;99.90
9847;DHT22;4962;50.084;8.794;2022-11-11T14:10:50;16.50;99.90
9847;DHT22;4962;50.084;8.794;2022-11-11T14:13:40;16.50;99.90
9847;DHT22;4962;50.084;8.794;2022-11-11T14:16:11;16.50;99.90
9847;DHT22;4962;50.084;8.794;2022-11-11T14:18:44;16.50;99.90
9847;DHT22;4962;50.084;8.794;2022-11-11T14:21:47;16.50;99.90
9847;DHT22;4962;50.084;8.794;2022-11-11T14:24:28;16.60;99.90
9847;DHT22;4962;50.084;8.794;2022-11-11T14:26:58;16.60;99.90
9847;DHT22;4962;50.084;8.794;2022-11-11T14:29:30;16.60;99.90
9847;DHT22;4962;50.084;8.794;2022-11-11T14:32:13;16.60;99.90
9847;DHT22;4962;50.084;8.794;2022-11-11T14:35:24;16.60;99.90
9847;DHT22;4962;50.084;8.794;2022-11-11T14:38:28;16.50;99.90
9847;DHT22;4962;50.084;8.794;2022-11-11T14:40:56;16.50;99.90
9847;DHT22;4962;50.084;8.794;2022-11-11T14:43:39;16.50;99.90
9847;DHT22;4962;50.084;8.794;2022-11-11T14:46:25;16.50;99.90
9847;DHT22;4962;50.084;8.794;2022-11-11T14:48:57;16.50;99.90
9847;DHT22;4962;50.084;8.794;2022-11-11T14:51:47;16.50;99.90
9847;DHT22;4962;50.084;8.794;2022-11-11T14:54:29;16.40;99.90
9847;DHT22;4962;50.084;8.794;2022-11-11T14:57:03;16.40;99.90
9847;DHT22;4962;50.084;8.794;2022-11-11T14:59:32;16.40;99.90
9847;DHT22;4962;50.084;8.794;2022-11-11T15:02:00;16.30;99.90
9847;DHT22;4962;50.084;8.794;2022-11-11T15:04:37;16.30;99.90
9847;DHT22;4962;50.084;8.794;2022-11-11T15:07:05;16.30;99.90
9847;DHT22;4962;50.084;8.794;2022-11-11T15:10:03;16.30;99.90
9847;DHT22;4962;50.084;8.794;2022-11-11T15:15:34;16.20;99.90
9847;DHT22;4962;50.084;8.794;2022-11-11T15:18:15;16.20;99.90
9847;DHT22;4962;50.084;8.794;2022-11-11T15:20:59;16.20;99.90
9847;DHT22;4962;50.084;8.794;2022-11-11T15:23:32;16.20;99.90
9847;DHT22;4962;50.084;8.794;2022-11-11T15:26:10;16.10;99.90
9847;DHT22;4962;50.084;8.794;2022-11-11T15:29:01;16.10;99.90
9847;DHT22;4962;50.084;8.794;2022-11-11T15:31:35;16.00;99.90
9847;DHT22;4962;50.084;8.794;2022-11-11T15:34:17;16.00;99.90
9847;DHT22;4962;50.084;8.794;2022-11-11T15:36:53;16.00;99.90
9847;DHT22;4962;50.084;8.794;2022-11-11T15:39:23;16.00;99.90
9847;DHT22;4962;50.084;8.794;2022-11-11T15:41:53;15.90;99.90
9847;DHT22;4962;50.084;8.794;2022-11-11T15:44:22;15.90;99.90
9847;DHT22;4962;50.084;8.794;2022-11-11T15:46:51;15.80;99.90
9847;DHT22;4962;50.084;8.794;2022-11-11T15:49:42;15.80;99.90
9847;DHT22;4962;50.084;8.794;2022-11-11T15:52:29;15.80;99.90
9847;DHT22;4962;50.084;8.794;2022-11-11T15:54:57;15.70;99.90
9847;DHT22;4962;50.084;8.794;2022-11-11T15:57:28;15.70;99.90
9847;DHT22;4962;50.084;8.794;2022-11-11T15:59:56;15.60;99.90
9847;DHT22;4962;50.084;8.794;2022-11-11T16:02:28;15.60;99.90
9847;DHT22;4962;50.084;8.794;2022-11-11T16:04:57;15.50;99.90
9847;DHT22;4962;50.084;8.794;2022-11-11T16:07:29;15.50;99.90
9847;DHT22;4962;50.084;8.794;2022-11-11T16:09:57;15.40;99.90
9847;DHT22;4962;50.084;8.794;2022-11-11T16:12:31;15.40;99.90
9847;DHT22;4962;50.084;8.794;2022-11-11T16:14:59;15.40;99.90
9847;DHT22;4962;50.084;8.794;2022-11-11T16:17:31;15.30;99.90
9847;DHT22;4962;50.084;8.794;2022-11-11T16:20:00;15.30;99.90
9847;DHT22;4962;50.084;8.794;2022-11-11T16:22:30;15.30;99.90
9847;DHT22;4962;50.084;8.794;2022-11-11T16:24:58;15.30;99.90
9847;DHT22;4962;50.084;8.794;2022-11-11T16:27:31;15.30;99.90
9847;DHT22;4962;50.084;8.794;2022-11-11T16:30:17;15.30;99.90
9847;DHT22;4962;50.084;8.794;2022-11-11T16:32:44;15.20;99.90
9847;DHT22;4962;50.084;8.794;2022-11-11T16:35:24;15.20;99.90
9847;DHT22;4962;50.084;8.794;2022-11-11T16:37:52;15.20;99.90
9847;DHT22;4962;50.084;8.794;2022-11-11T16:40:27;15.10;99.90
9847;DHT22;4962;50.084;8.794;2022-11-11T16:43:18;15.10;99.90
9847;DHT22;4962;50.084;8.794;2022-11-11T16:45:47;15.10;99.90
9847;DHT22;4962;50.084;8.794;2022-11-11T16:48:40;15.00;99.90
9847;DHT22;4962;50.084;8.794;2022-11-11T16:51:11;15.00;99.90
9847;DHT22;4962;50.084;8.794;2022-11-11T16:53:41;14.90;99.90
9847;DHT22;4962;50.084;8.794;2022-11-11T16:56:16;14.90;99.90
9847;DHT22;4962;50.084;8.794;2022-11-11T16:58:56;14.90;99.90
9847;DHT22;4962;50.084;8.794;2022-11-11T17:01:24;14.80;99.90
9847;DHT22;4962;50.084;8.794;2022-11-11T17:03:55;14.80;99.90
9847;DHT22;4962;50.084;8.794;2022-11-11T17:06:53;14.80;99.90